Time;durP1;ratioP1;P1;durP2;ratioP2;P2;SDS_P1;SDS_P2;PMS_P1;PMS_P2;Temp;Humidity;BMP_temperature;BMP_pressure;BME280_temperature;BME280_humidity;BME280_pressure;Samples;Min_cycle;Max_cycle;Signal;HPM_P1;HPM_P2
2021/10/28 00:12:25;;;;;;;2.73;1.73;;;8.30;66.40;;;;;;5041008;28;20048;-87
2021/10/28 00:14:56;;;;;;;2.97;1.83;;;8.30;66.30;;;;;;5036206;28;20465;-87
2021/10/28 00:17:40;;;;;;;3.03;1.90;;;8.30;66.30;;;;;;5041890;28;20085;-87
2021/10/28 00:20:08;;;;;;;4.10;2.00;;;8.20;66.40;;;;;;5032833;28;20070;-87
2021/10/28 00:22:35;;;;;;;4.07;2.00;;;8.20;66.50;;;;;;5039399;28;20116;-87
2021/10/28 00:25:00;;;;;;;9.80;2.40;;;8.20;66.60;;;;;;5033962;28;20114;-86
2021/10/28 00:27:26;;;;;;;3.87;2.20;;;8.20;66.50;;;;;;5021662;28;20065;-86
2021/10/28 00:29:53;;;;;;;3.80;2.33;;;8.20;66.30;;;;;;5023218;28;20028;-85
2021/10/28 00:32:19;;;;;;;5.23;2.87;;;8.10;66.20;;;;;;5017884;28;20080;-86
2021/10/28 00:34:45;;;;;;;6.77;1.87;;;8.00;66.70;;;;;;5011749;28;20145;-85
2021/10/28 00:37:11;;;;;;;2.73;1.83;;;8.00;66.60;;;;;;5011667;28;20057;-86
2021/10/28 00:39:37;;;;;;;5.23;1.93;;;8.00;66.50;;;;;;5013489;28;20068;-85
2021/10/28 00:42:04;;;;;;;3.63;1.80;;;7.90;66.70;;;;;;5015122;28;20022;-86
2021/10/28 00:44:29;;;;;;;2.20;1.67;;;7.90;66.60;;;;;;5007411;28;20030;-87
2021/10/28 00:46:55;;;;;;;5.83;2.50;;;7.90;66.60;;;;;;4992466;28;20608;-87
2021/10/28 00:49:21;;;;;;;2.07;1.60;;;7.80;66.80;;;;;;5011918;28;20037;-86
2021/10/28 00:51:47;;;;;;;5.40;1.50;;;7.80;67.00;;;;;;5012519;28;20512;-85
2021/10/28 00:54:15;;;;;;;3.37;1.83;;;7.80;67.10;;;;;;5011911;28;20040;-85
2021/10/28 00:56:43;;;;;;;4.13;1.50;;;7.80;67.30;;;;;;5025069;28;20137;-86
2021/10/28 00:59:10;;;;;;;4.97;1.40;;;7.80;67.10;;;;;;5005614;28;20014;-86
2021/10/28 01:01:36;;;;;;;5.73;1.70;;;7.70;67.10;;;;;;5012275;28;20068;-85
2021/10/28 01:04:03;;;;;;;4.60;1.80;;;7.70;67.20;;;;;;4993939;28;20034;-86
2021/10/28 01:06:29;;;;;;;2.93;1.63;;;7.70;67.10;;;;;;5004236;28;20033;-86
2021/10/28 01:08:55;;;;;;;3.03;1.67;;;7.70;67.00;;;;;;5011774;28;20030;-86
2021/10/28 01:11:21;;;;;;;1.80;1.23;;;7.60;67.20;;;;;;4998783;28;20031;-86
2021/10/28 01:13:47;;;;;;;2.80;1.43;;;7.60;67.50;;;;;;5030306;28;20029;-86
2021/10/28 01:16:13;;;;;;;2.43;1.40;;;7.60;67.70;;;;;;5009402;28;20030;-85
2021/10/28 01:18:39;;;;;;;1.97;1.40;;;7.60;67.40;;;;;;5012140;28;20108;-86
2021/10/28 01:21:08;;;;;;;5.53;1.50;;;7.60;67.60;;;;;;5010906;28;20183;-85
2021/10/28 01:23:35;;;;;;;3.10;1.70;;;7.60;67.50;;;;;;5011705;28;20025;-86
2021/10/28 01:26:07;;;;;;;2.97;1.57;;;7.60;67.70;;;;;;5017204;28;20041;-86
2021/10/28 01:28:36;;;;;;;3.27;1.20;;;7.70;67.80;;;;;;5011725;28;20033;-86
2021/10/28 01:31:05;;;;;;;3.57;1.67;;;7.70;67.70;;;;;;5009522;28;20045;-86
2021/10/28 01:33:31;;;;;;;4.10;1.57;;;7.60;68.30;;;;;;4995193;28;20080;-86
2021/10/28 01:35:57;;;;;;;4.33;1.63;;;7.60;67.50;;;;;;5026521;28;20370;-86
2021/10/28 01:38:26;;;;;;;3.27;1.37;;;7.60;67.60;;;;;;5007043;28;20018;-86
2021/10/28 01:40:55;;;;;;;2.23;1.30;;;7.50;67.90;;;;;;5012868;28;20120;-86
2021/10/28 01:43:21;;;;;;;2.50;1.40;;;7.60;67.90;;;;;;5001719;28;20499;-86
2021/10/28 01:45:46;;;;;;;3.13;1.50;;;7.60;67.60;;;;;;5007861;28;20038;-86
2021/10/28 01:48:13;;;;;;;5.50;1.43;;;7.60;67.50;;;;;;5008424;28;20079;-84
2021/10/28 01:50:40;;;;;;;2.37;1.20;;;7.60;67.50;;;;;;5012061;28;20025;-87
2021/10/28 01:53:06;;;;;;;1.83;1.20;;;7.60;67.60;;;;;;5027406;28;20034;-86
2021/10/28 01:55:32;;;;;;;2.20;1.50;;;7.60;67.60;;;;;;5011257;28;20164;-87
2021/10/28 01:57:58;;;;;;;2.57;1.50;;;7.60;67.40;;;;;;5001358;28;20033;-86
2021/10/28 02:00:24;;;;;;;17.10;12.03;;;7.50;67.40;;;;;;5003324;28;20038;-86
2021/10/28 02:02:51;;;;;;;3.53;2.37;;;7.50;67.50;;;;;;5009851;28;20026;-87
2021/10/28 02:05:20;;;;;;;4.37;2.00;;;7.40;67.30;;;;;;5011543;28;20041;-87
2021/10/28 02:07:46;;;;;;;3.33;2.17;;;7.30;67.30;;;;;;5019340;28;20029;-86
2021/10/28 02:10:13;;;;;;;1.97;1.20;;;7.30;67.80;;;;;;5005191;28;20050;-86
2021/10/28 02:12:39;;;;;;;2.50;1.20;;;7.30;67.70;;;;;;5005687;28;20080;-86
2021/10/28 02:15:12;;;;;;;3.57;1.80;;;7.20;67.70;;;;;;5011290;28;20713;-86
2021/10/28 02:17:37;;;;;;;;;;;7.20;68.20;;;;;;5015587;28;20041;-86
2021/10/28 02:20:06;;;;;;;1.93;1.20;;;7.30;68.20;;;;;;5008319;28;19909;-86
2021/10/28 02:22:32;;;;;;;4.60;2.10;;;7.30;67.90;;;;;;5004524;28;20523;-86
2021/10/28 02:24:58;;;;;;;2.07;1.40;;;7.40;67.90;;;;;;5013774;28;20040;-86
2021/10/28 02:27:24;;;;;;;3.77;1.67;;;7.30;67.80;;;;;;5016199;28;20030;-86
2021/10/28 02:29:50;;;;;;;4.33;1.80;;;7.20;68.10;;;;;;4999247;28;20045;-87
2021/10/28 02:32:16;;;;;;;3.27;2.17;;;7.20;68.20;;;;;;5041166;28;20723;-86
2021/10/28 02:34:42;;;;;;;4.47;1.80;;;7.20;68.20;;;;;;5034837;28;20037;-86
2021/10/28 02:37:08;;;;;;;2.80;1.50;;;7.20;68.40;;;;;;5038032;28;20024;-86
2021/10/28 02:39:34;;;;;;;6.07;2.33;;;7.20;68.40;;;;;;5014808;28;20362;-86
2021/10/28 02:42:00;;;;;;;5.93;2.10;;;7.20;68.60;;;;;;5034219;28;20037;-86
2021/10/28 02:44:26;;;;;;;3.07;1.70;;;7.20;68.60;;;;;;5030881;28;20468;-86
2021/10/28 02:46:52;;;;;;;3.20;2.10;;;7.30;68.60;;;;;;5034631;28;20025;-86
2021/10/28 02:49:18;;;;;;;4.57;2.23;;;7.30;68.50;;;;;;5033594;28;20024;-86
2021/10/28 02:51:48;;;;;;;2.67;1.87;;;7.40;68.30;;;;;;5033646;28;20534;-86
2021/10/28 02:54:18;;;;;;;3.40;1.70;;;7.40;68.10;;;;;;5047982;28;20022;-86
2021/10/28 02:56:45;;;;;;;3.83;1.53;;;7.40;67.90;;;;;;5026616;28;20089;-86
2021/10/28 02:59:11;;;;;;;3.83;1.63;;;7.40;68.10;;;;;;5024866;28;20056;-87
2021/10/28 03:01:42;;;;;;;5.37;2.27;;;7.40;68.10;;;;;;5032886;28;20030;-87
2021/10/28 03:04:10;;;;;;;6.30;3.17;;;7.50;68.20;;;;;;5034627;28;20427;-85
2021/10/28 03:06:38;;;;;;;3.67;2.30;;;7.40;68.10;;;;;;5034952;28;20037;-85
2021/10/28 03:09:04;;;;;;;3.70;2.10;;;7.30;68.40;;;;;;5023292;28;20505;-86
2021/10/28 03:11:30;;;;;;;4.73;2.33;;;7.40;68.10;;;;;;5019302;28;20132;-86
2021/10/28 03:13:56;;;;;;;2.77;1.70;;;7.40;68.20;;;;;;5029877;28;20064;-86
2021/10/28 03:16:32;;;;;;;7.00;1.80;;;7.40;68.10;;;;;;5033662;28;20049;-86
2021/10/28 03:27:10;;;;;;;3.83;1.93;;;7.20;68.20;;;;;;5030866;28;20036;-86
2021/10/28 03:29:35;;;;;;;2.37;1.70;;;7.20;68.20;;;;;;5033359;28;20037;-86
2021/10/28 03:32:01;;;;;;;3.60;2.10;;;7.20;68.40;;;;;;5050029;28;20053;-86
2021/10/28 03:34:27;;;;;;;5.47;2.30;;;7.20;68.30;;;;;;5049630;28;20032;-87
2021/10/28 03:58:34;;;;;;;3.40;1.60;;;7.10;68.30;;;;;;5019550;28;20381;-86
2021/10/28 04:29:57;;;;;;;6.97;2.00;;;7.10;68.00;;;;;;5035260;28;20167;-86
2021/10/28 04:32:23;;;;;;;2.93;2.20;;;7.00;67.90;;;;;;5020534;28;20128;-86
2021/10/28 04:34:49;;;;;;;3.33;2.20;;;6.90;68.10;;;;;;5016101;28;20029;-86
2021/10/28 04:37:15;;;;;;;3.33;2.03;;;6.90;68.30;;;;;;5012865;28;20037;-86
2021/10/28 04:39:41;;;;;;;4.37;2.40;;;6.90;68.20;;;;;;5011326;28;20397;-86
2021/10/28 04:42:07;;;;;;;4.80;2.40;;;6.90;68.10;;;;;;5019592;28;20591;-86
2021/10/28 04:44:33;;;;;;;5.50;2.90;;;6.90;68.10;;;;;;5011489;28;20088;-85
2021/10/28 04:46:59;;;;;;;6.33;3.30;;;6.90;67.90;;;;;;5011610;28;20025;-86
2021/10/28 04:49:25;;;;;;;15.13;7.07;;;6.80;67.80;;;;;;5014909;28;20034;-86
2021/10/28 04:51:52;;;;;;;9.17;5.27;;;6.80;67.90;;;;;;5013577;28;20424;-86
2021/10/28 04:54:19;;;;;;;30.07;6.53;;;6.80;67.90;;;;;;5011984;28;20030;-86
2021/10/28 04:56:44;;;;;;;22.37;10.93;;;6.80;68.10;;;;;;5012106;28;20021;-86
2021/10/28 04:59:10;;;;;;;16.73;5.23;;;6.80;68.20;;;;;;5011474;28;20025;-86
2021/10/28 05:01:36;;;;;;;14.17;7.37;;;6.80;68.10;;;;;;5011298;28;20083;-86
2021/10/28 05:04:04;;;;;;;14.10;5.63;;;6.70;68.20;;;;;;5015105;28;20491;-89
2021/10/28 05:06:29;;;;;;;15.13;7.83;;;6.60;68.20;;;;;;5011143;28;20493;-86
2021/10/28 05:08:55;;;;;;;10.43;6.23;;;6.60;68.50;;;;;;5011464;28;20068;-89
2021/10/28 05:11:23;;;;;;;9.70;5.80;;;6.60;68.50;;;;;;5009881;28;20025;-89
2021/10/28 05:13:51;;;;;;;10.13;5.37;;;6.50;68.60;;;;;;5008133;28;20021;-88
2021/10/28 05:16:17;;;;;;;12.70;6.10;;;6.50;68.60;;;;;;5014914;28;20033;-88
2021/10/28 05:18:45;;;;;;;10.57;6.23;;;6.50;68.60;;;;;;5022285;28;20029;-88
2021/10/28 05:21:12;;;;;;;10.43;6.17;;;6.50;68.50;;;;;;5031516;28;20393;-88
2021/10/28 05:23:39;;;;;;;13.23;6.13;;;6.50;68.50;;;;;;5031151;28;20104;-88
2021/10/28 05:26:06;;;;;;;9.10;5.77;;;6.50;68.40;;;;;;5031334;28;20029;-89
2021/10/28 05:28:33;;;;;;;8.37;6.03;;;6.50;68.40;;;;;;5031253;28;20033;-88
2021/10/28 05:31:00;;;;;;;10.87;6.83;;;6.50;68.20;;;;;;5037571;28;20079;-88
2021/10/28 05:33:26;;;;;;;9.87;6.73;;;6.50;68.30;;;;;;5051264;28;20043;-88
2021/10/28 05:35:52;;;;;;;17.20;10.53;;;6.50;68.30;;;;;;5034565;28;20127;-88
2021/10/28 05:38:18;;;;;;;20.33;9.97;;;6.50;68.30;;;;;;5051302;28;20056;-88
2021/10/28 05:40:44;;;;;;;19.93;10.33;;;6.50;68.30;;;;;;5052496;28;20025;-88
2021/10/28 05:43:10;;;;;;;18.23;9.07;;;6.40;68.30;;;;;;5034656;28;20502;-88
2021/10/28 05:45:37;;;;;;;23.43;11.50;;;6.40;68.40;;;;;;5031147;28;20030;-88
2021/10/28 05:48:04;;;;;;;24.33;11.97;;;6.40;68.40;;;;;;5031122;28;20120;-88
2021/10/28 05:50:30;;;;;;;23.73;11.37;;;6.40;68.20;;;;;;5032776;28;20423;-88
2021/10/28 05:52:58;;;;;;;33.07;13.83;;;6.40;68.30;;;;;;5037672;28;20040;-88
2021/10/28 05:55:25;;;;;;;23.40;11.77;;;6.50;68.30;;;;;;5039085;28;20025;-88
2021/10/28 05:57:52;;;;;;;16.80;10.20;;;6.40;68.30;;;;;;5057187;28;20021;-88
2021/10/28 06:00:19;;;;;;;15.03;8.60;;;6.40;68.40;;;;;;5058750;28;20029;-88
2021/10/28 06:02:45;;;;;;;23.10;8.90;;;6.40;68.30;;;;;;5040705;28;20078;-88
2021/10/28 06:05:11;;;;;;;20.43;8.37;;;6.40;68.30;;;;;;5041101;28;20491;-88
2021/10/28 06:07:39;;;;;;;11.40;6.20;;;6.40;68.20;;;;;;5041151;28;20035;-88
2021/10/28 06:10:05;;;;;;;12.20;6.30;;;6.40;68.20;;;;;;5040667;28;20029;-89
2021/10/28 06:12:36;;;;;;;9.10;5.37;;;6.40;68.20;;;;;;5040568;28;20067;-88
2021/10/28 06:15:03;;;;;;;11.00;5.50;;;6.40;68.30;;;;;;5041010;28;20028;-88
2021/10/28 06:17:33;;;;;;;11.83;5.77;;;6.40;68.10;;;;;;5040564;28;20432;-88
2021/10/28 06:20:00;;;;;;;10.07;5.73;;;6.40;68.20;;;;;;5040748;28;20034;-88
2021/10/28 06:22:28;;;;;;;14.90;7.00;;;6.40;68.40;;;;;;5040717;28;20028;-88
2021/10/28 06:24:54;;;;;;;14.37;6.70;;;6.40;68.30;;;;;;5040467;28;20033;-87
2021/10/28 06:27:20;;;;;;;13.07;7.30;;;6.40;68.30;;;;;;5022239;28;20026;-87
2021/10/28 06:29:46;;;;;;;12.97;6.73;;;6.30;68.30;;;;;;5058506;28;20033;-88
2021/10/28 06:32:13;;;;;;;8.97;5.43;;;6.40;68.50;;;;;;5040113;28;20056;-88
2021/10/28 06:34:42;;;;;;;8.50;5.70;;;6.40;68.40;;;;;;5040310;28;20498;-88
2021/10/28 06:37:08;;;;;;;11.27;6.13;;;6.40;68.30;;;;;;5040486;28;20044;-87
2021/10/28 06:39:35;;;;;;;9.53;5.70;;;6.40;68.20;;;;;;5040510;28;20373;-87
2021/10/28 06:42:00;;;;;;;11.90;6.70;;;6.40;68.20;;;;;;5040678;28;20073;-87
2021/10/28 06:44:26;;;;;;;18.20;6.13;;;6.30;68.50;;;;;;5057034;28;20029;-87
2021/10/28 06:46:52;;;;;;;13.57;6.87;;;6.30;68.70;;;;;;5042664;28;20392;-87
2021/10/28 06:49:19;;;;;;;9.17;6.40;;;6.30;68.80;;;;;;5040805;28;20036;-87
2021/10/28 06:51:46;;;;;;;10.70;6.50;;;6.40;68.70;;;;;;5040487;28;20044;-87
2021/10/28 07:02:47;;;;;;;9.83;5.70;;;6.30;68.60;;;;;;5056335;28;20068;-87
2021/10/28 07:05:06;;;;;;;10.47;6.37;;;6.40;68.60;;;;;;5050368;28;20048;-88
2021/10/28 07:07:33;;;;;;;12.33;7.23;;;6.40;68.50;;;;;;5021671;28;20023;-88
2021/10/28 07:10:45;;;;;;;13.23;7.63;;;6.40;68.60;;;;;;5033605;28;20027;-88
2021/10/28 07:13:14;;;;;;;11.17;7.20;;;6.40;68.80;;;;;;5037186;28;20476;-87
2021/10/28 07:15:52;;;;;;;14.57;8.73;;;6.40;68.50;;;;;;5037123;28;20021;-87
2021/10/28 07:18:26;;;;;;;14.10;8.97;;;6.40;68.40;;;;;;5036748;28;20021;-88
2021/10/28 08:04:43;;;;;;;29.70;12.43;;;6.80;68.90;;;;;;5053980;28;20013;-86
2021/10/28 08:18:55;;;;;;;15.95;7.57;;;10.30;63.10;;;;;;5052399;28;20017;-88
2021/10/28 08:29:19;;;;;;;16.98;7.75;;;17.90;50.50;;;;;;5053845;28;20066;-86
2021/10/28 08:31:44;;;;;;;14.75;7.70;;;17.80;51.10;;;;;;5034740;28;20051;-86
2021/10/28 08:34:10;;;;;;;20.58;10.40;;;17.30;51.80;;;;;;5051756;28;20399;-86
2021/10/28 08:36:40;;;;;;;18.05;7.88;;;16.80;52.30;;;;;;5038786;28;20041;-85
2021/10/28 08:39:07;;;;;;;12.07;7.45;;;16.30;52.50;;;;;;5034131;28;20029;-85
2021/10/28 08:41:36;;;;;;;13.73;7.75;;;15.60;52.70;;;;;;5034423;28;20021;-85
2021/10/28 08:44:02;;;;;;;14.63;7.60;;;15.00;52.80;;;;;;5034298;28;20086;-85
2021/10/28 08:46:30;;;;;;;11.05;5.78;;;14.50;53.00;;;;;;5052035;28;20056;-85
2021/10/28 08:49:03;;;;;;;4.82;3.10;;;14.10;53.00;;;;;;5051234;28;20052;-85
2021/10/28 08:51:43;;;;;;;8.20;3.90;;;13.80;53.20;;;;;;5034805;28;20352;-87
2021/10/28 09:24:47;;;;;;;5.07;2.67;;;13.90;53.10;;;;;;5028637;28;20029;-86
2021/10/28 09:27:26;;;;;;;7.30;4.25;;;13.90;53.00;;;;;;5030712;28;20052;-87
2021/10/28 09:44:32;;;;;;;6.65;2.47;;;14.30;51.30;;;;;;5039482;28;20882;-87
2021/10/28 09:46:51;;;;;;;6.25;2.20;;;14.20;51.50;;;;;;5051032;28;20472;-86
2021/10/28 09:52:03;;;;;;;6.88;2.85;;;14.50;50.90;;;;;;5072545;28;20380;-87
2021/10/28 10:00:18;;;;;;;4.78;2.60;;;14.60;49.60;;;;;;5057182;28;20102;-87
2021/10/28 10:02:50;;;;;;;4.78;2.72;;;14.50;49.90;;;;;;5033868;28;20487;-86
2021/10/28 10:05:20;;;;;;;5.60;2.30;;;14.70;49.80;;;;;;5034038;28;20032;-87
2021/10/28 10:07:49;;;;;;;7.47;2.60;;;14.70;49.30;;;;;;5027341;28;20036;-87
2021/10/28 10:10:28;;;;;;;6.95;2.83;;;14.70;48.90;;;;;;5034202;28;20111;-87
2021/10/28 10:12:54;;;;;;;7.25;2.60;;;14.80;48.50;;;;;;5032834;28;20104;-87
2021/10/28 10:15:20;;;;;;;7.90;2.50;;;14.70;48.40;;;;;;5032470;28;20079;-86
2021/10/28 10:17:50;;;;;;;4.07;2.22;;;14.60;48.30;;;;;;5032696;28;20497;-87
2021/10/28 10:20:18;;;;;;;8.10;2.30;;;14.80;48.50;;;;;;5044427;28;20029;-87
2021/10/28 10:23:00;;;;;;;8.85;2.97;;;14.90;48.30;;;;;;5050236;28;20333;-87
2021/10/28 10:25:40;;;;;;;5.72;2.33;;;15.00;48.10;;;;;;5034080;28;20036;-87
2021/10/28 11:16:11;;;;;;;3.67;2.15;;;15.70;44.70;;;;;;5054392;28;20032;-86
2021/10/28 11:27:20;;;;;;;9.95;2.15;;;16.40;45.50;;;;;;5043556;28;20044;-86
2021/10/28 12:50:07;;;;;;;3.00;1.48;;;17.50;39.70;;;;;;5049174;28;20119;-87
2021/10/28 13:35:09;;;;;;;6.07;1.98;;;17.60;39.40;;;;;;5070145;28;20031;-87
2021/10/28 13:50:26;;;;;;;3.47;1.52;;;17.40;39.00;;;;;;5066352;28;20159;-88
2021/10/28 14:31:48;;;;;;;4.05;1.95;;;17.00;38.80;;;;;;5046515;28;20055;-87
2021/10/28 14:59:25;;;;;;;10.88;4.38;;;16.60;43.90;;;;;;5043006;28;20052;-87
2021/10/28 15:28:42;;;;;;;9.00;5.13;;;15.80;47.80;;;;;;5053213;28;20044;-87
2021/10/28 15:36:15;;;;;;;8.60;3.47;;;15.60;48.50;;;;;;5044545;28;20126;-87
2021/10/28 15:42:34;;;;;;;10.67;5.10;;;15.40;49.00;;;;;;5054768;28;19912;-87
2021/10/28 15:57:37;;;;;;;9.70;4.80;;;14.80;50.20;;;;;;5057200;28;20031;-87
2021/10/28 16:24:18;;;;;;;5.30;3.23;;;14.00;52.60;;;;;;5074158;28;20031;-86
2021/10/28 16:26:44;;;;;;;7.20;3.47;;;13.90;52.60;;;;;;5049996;28;20039;-86
2021/10/28 16:29:12;;;;;;;12.17;7.67;;;13.90;52.80;;;;;;5036076;28;20104;-86
2021/10/28 16:31:41;;;;;;;15.33;8.27;;;13.80;52.90;;;;;;5035365;28;20110;-86
2021/10/28 16:34:07;;;;;;;9.20;4.90;;;13.90;53.00;;;;;;5035612;28;20033;-86
2021/10/28 16:36:33;;;;;;;8.23;4.17;;;13.70;53.20;;;;;;5035119;28;20124;-86
2021/10/28 16:39:04;;;;;;;6.93;2.67;;;13.70;53.30;;;;;;5053522;28;20025;-87
2021/10/28 16:41:30;;;;;;;6.03;3.13;;;13.70;53.40;;;;;;5035420;28;20391;-86
2021/10/28 16:43:59;;;;;;;5.53;2.50;;;13.70;53.30;;;;;;5035014;28;20024;-86
2021/10/28 16:46:25;;;;;;;8.33;3.17;;;13.70;53.30;;;;;;5032995;28;20171;-87
2021/10/28 16:48:50;;;;;;;7.40;4.73;;;13.60;53.40;;;;;;5035485;28;20539;-89
2021/10/28 16:51:16;;;;;;;15.93;4.47;;;13.50;53.40;;;;;;5031865;28;20162;-86
2021/10/28 16:53:44;;;;;;;8.07;4.80;;;13.40;53.60;;;;;;5035213;28;20036;-86
2021/10/28 16:56:14;;;;;;;10.97;4.57;;;13.30;53.90;;;;;;5035771;28;20052;-86
2021/10/28 16:58:40;;;;;;;8.03;5.13;;;13.30;54.20;;;;;;5033232;28;20103;-86
2021/10/28 17:01:08;;;;;;;8.27;5.50;;;13.20;54.20;;;;;;5035099;28;20024;-85
2021/10/28 17:03:41;;;;;;;9.10;4.50;;;13.10;54.50;;;;;;5053583;28;20155;-86
2021/10/28 17:06:10;;;;;;;9.50;5.73;;;13.10;54.60;;;;;;5034162;28;20028;-85
2021/10/28 17:08:35;;;;;;;7.60;3.30;;;13.00;55.30;;;;;;5035142;28;20063;-86
2021/10/28 17:11:08;;;;;;;5.97;4.03;;;12.90;55.10;;;;;;5034092;28;20052;-86
2021/10/28 17:13:34;;;;;;;;;;;12.90;55.20;;;;;;5056768;28;20151;-86
2021/10/28 17:16:08;;;;;;;13.83;8.57;;;12.80;55.20;;;;;;5024218;28;19999;-86
2021/10/28 17:18:58;;;;;;;9.60;8.30;;;12.80;54.90;;;;;;5035461;28;20036;-86
2021/10/28 17:21:24;;;;;;;14.23;8.70;;;12.80;55.30;;;;;;5053056;28;20384;-85
2021/10/28 17:24:00;;;;;;;9.80;6.70;;;12.70;55.30;;;;;;5035793;28;20605;-86
2021/10/28 17:26:27;;;;;;;10.70;6.60;;;12.70;55.50;;;;;;5035452;28;20033;-86
2021/10/28 17:28:58;;;;;;;14.13;5.90;;;12.60;55.70;;;;;;5040104;28;20033;-85
2021/10/28 17:31:24;;;;;;;8.80;6.00;;;12.60;55.90;;;;;;5035764;28;20385;-86
2021/10/28 17:33:50;;;;;;;6.67;4.50;;;12.50;56.10;;;;;;5031412;28;20033;-86
2021/10/28 17:36:16;;;;;;;5.97;4.37;;;12.40;56.20;;;;;;5031824;28;20108;-85
2021/10/28 17:38:42;;;;;;;10.47;5.57;;;12.40;56.30;;;;;;5029933;28;20469;-86
2021/10/28 17:41:08;;;;;;;6.40;4.30;;;12.40;56.20;;;;;;5040112;28;20111;-86
2021/10/28 17:43:35;;;;;;;8.17;4.77;;;12.40;56.20;;;;;;5029940;28;20041;-86
2021/10/28 17:46:03;;;;;;;9.27;5.87;;;12.40;56.30;;;;;;5031185;28;20029;-86
2021/10/28 17:48:29;;;;;;;9.83;5.37;;;12.30;56.30;;;;;;5030220;28;20025;-85
2021/10/28 17:50:55;;;;;;;8.17;5.37;;;12.30;56.70;;;;;;5030271;28;20030;-85
2021/10/28 17:53:23;;;;;;;8.57;6.30;;;12.20;56.80;;;;;;5030951;28;20099;-86
2021/10/28 17:55:49;;;;;;;7.10;5.10;;;12.20;56.90;;;;;;5030221;28;20029;-86
2021/10/28 17:58:15;;;;;;;9.17;4.53;;;12.20;57.10;;;;;;5029993;28;20026;-86
2021/10/28 18:00:41;;;;;;;16.03;5.70;;;12.10;57.20;;;;;;5030078;28;20124;-85
2021/10/28 18:03:08;;;;;;;8.60;4.87;;;12.10;57.10;;;;;;5029247;28;20452;-86
2021/10/28 18:05:35;;;;;;;11.47;6.17;;;12.10;57.00;;;;;;5018877;28;20117;-85
2021/10/28 18:08:01;;;;;;;8.93;4.73;;;12.10;57.00;;;;;;5030691;28;20083;-86
2021/10/28 18:10:27;;;;;;;8.07;4.20;;;12.00;57.20;;;;;;5032318;28;20060;-87
2021/10/28 18:12:53;;;;;;;15.90;5.97;;;12.00;57.30;;;;;;5032105;28;20052;-86
2021/10/28 18:15:19;;;;;;;18.03;7.70;;;12.00;57.40;;;;;;5043079;28;20454;-86
2021/10/28 18:17:45;;;;;;;16.77;7.37;;;11.90;57.50;;;;;;5027950;28;20476;-86
2021/10/28 18:20:12;;;;;;;26.57;9.13;;;11.80;57.80;;;;;;5031261;28;20049;-86
2021/10/28 18:22:40;;;;;;;23.87;9.60;;;11.80;57.80;;;;;;5031746;28;20057;-86
2021/10/28 18:25:09;;;;;;;29.33;10.50;;;11.80;57.60;;;;;;5022830;28;20032;-86
2021/10/28 18:27:36;;;;;;;19.93;7.53;;;11.80;57.50;;;;;;5029745;28;20026;-86
2021/10/28 18:30:03;;;;;;;14.60;6.37;;;11.70;57.50;;;;;;5032383;28;20101;-86
2021/10/28 18:32:28;;;;;;;13.33;6.57;;;11.70;57.70;;;;;;5045725;28;20033;-86
2021/10/28 18:34:55;;;;;;;12.17;6.57;;;11.60;57.70;;;;;;5035792;28;20066;-86
2021/10/28 18:37:22;;;;;;;9.53;5.60;;;11.60;57.70;;;;;;5033224;28;20040;-85
2021/10/28 18:39:50;;;;;;;16.00;6.17;;;11.50;57.70;;;;;;5027126;28;20121;-85
2021/10/28 18:42:16;;;;;;;11.63;5.80;;;11.50;57.90;;;;;;5039899;28;20029;-86
2021/10/28 18:44:42;;;;;;;8.70;4.83;;;11.40;58.00;;;;;;5037821;28;20044;-86
2021/10/28 18:47:08;;;;;;;8.70;5.57;;;11.30;58.20;;;;;;5048604;28;20032;-85
2021/10/28 18:49:34;;;;;;;11.80;4.67;;;11.20;58.60;;;;;;5034838;28;20742;-85
2021/10/28 18:51:59;;;;;;;7.53;4.20;;;11.30;58.70;;;;;;5033049;28;20120;-86
2021/10/28 18:54:25;;;;;;;5.70;3.67;;;11.20;58.60;;;;;;5032861;28;20037;-86
2021/10/28 18:56:51;;;;;;;7.90;4.23;;;11.20;58.80;;;;;;5034647;28;20088;-86
2021/10/28 18:59:18;;;;;;;7.20;3.97;;;11.20;58.90;;;;;;5049786;28;20025;-86
2021/10/28 19:01:49;;;;;;;14.13;8.67;;;11.20;59.00;;;;;;5038179;28;20047;-86
2021/10/28 19:04:15;;;;;;;22.40;9.73;;;11.10;58.80;;;;;;5037041;28;20419;-86
2021/10/28 19:06:42;;;;;;;10.37;6.60;;;11.10;58.90;;;;;;5054865;28;20033;-86
2021/10/28 19:09:11;;;;;;;10.27;5.77;;;11.10;58.90;;;;;;5037498;28;20041;-86
2021/10/28 19:11:36;;;;;;;12.53;6.73;;;11.00;58.90;;;;;;5038764;28;20041;-86
2021/10/28 19:14:03;;;;;;;10.20;6.57;;;11.00;58.90;;;;;;5051732;28;20032;-86
2021/10/28 19:16:28;;;;;;;9.67;5.70;;;11.00;59.10;;;;;;5035165;28;20028;-86
2021/10/28 19:18:54;;;;;;;14.57;6.33;;;10.80;59.00;;;;;;5032100;28;20029;-86
2021/10/28 19:21:21;;;;;;;11.53;4.70;;;10.80;59.30;;;;;;5045513;28;20032;-86
2021/10/28 19:23:47;;;;;;;10.67;5.10;;;10.90;59.20;;;;;;5043711;28;20033;-86
2021/10/28 19:26:13;;;;;;;6.83;4.50;;;10.90;59.20;;;;;;5036991;28;20075;-86
2021/10/28 19:28:42;;;;;;;8.37;5.27;;;10.80;59.10;;;;;;5035370;28;20037;-86
2021/10/28 19:31:26;;;;;;;10.63;5.87;;;10.80;59.30;;;;;;5040442;28;20060;-86
2021/10/28 19:33:58;;;;;;;7.47;4.80;;;10.70;59.40;;;;;;5029584;28;20029;-86
2021/10/28 19:42:23;;;;;;;4.97;3.47;;;10.60;59.70;;;;;;5034156;28;20022;-86
2021/10/28 19:47:29;;;;;;;7.53;3.70;;;10.50;59.90;;;;;;5035533;28;20022;-86
2021/10/28 19:49:55;;;;;;;6.50;2.97;;;10.50;59.70;;;;;;5045985;28;20045;-86
2021/10/28 19:52:21;;;;;;;8.07;2.80;;;10.50;59.90;;;;;;5032506;28;20032;-86
2021/10/28 19:54:48;;;;;;;6.53;3.83;;;10.50;60.00;;;;;;5031503;28;20029;-86
2021/10/28 19:57:20;;;;;;;7.17;4.10;;;10.40;60.00;;;;;;5032451;28;20026;-86
2021/10/28 19:59:52;;;;;;;4.85;3.20;;;10.40;60.00;;;;;;5032930;28;20028;-87
2021/10/28 20:02:27;;;;;;;6.35;3.45;;;10.30;60.00;;;;;;5030628;28;20026;-87
2021/10/28 20:07:27;;;;;;;9.40;3.80;;;9.90;60.80;;;;;;5036522;28;20844;-86
2021/10/28 20:20:59;;;;;;;5.37;3.00;;;10.10;60.80;;;;;;5036893;28;20044;-86
2021/10/28 20:23:27;;;;;;;5.50;3.07;;;10.10;60.70;;;;;;5033136;28;20044;-86
2021/10/28 20:25:52;;;;;;;5.73;3.70;;;10.10;60.90;;;;;;5044491;28;20032;-86
2021/10/28 20:28:18;;;;;;;8.73;4.83;;;10.10;60.90;;;;;;5031757;28;20396;-86
2021/10/28 20:30:55;;;;;;;7.10;4.33;;;10.00;60.80;;;;;;5037924;28;20072;-86
2021/10/28 20:33:22;;;;;;;5.80;3.30;;;10.00;61.10;;;;;;5033742;28;20487;-86
2021/10/28 20:36:08;;;;;;;6.77;4.73;;;10.00;61.50;;;;;;5051222;28;20028;-86
2021/10/28 20:38:38;;;;;;;12.83;7.33;;;10.00;61.60;;;;;;5032050;28;20067;-86
2021/10/28 20:41:05;;;;;;;12.07;5.13;;;9.90;61.60;;;;;;5053190;28;20028;-86
2021/10/28 20:43:31;;;;;;;8.23;5.67;;;9.90;61.60;;;;;;5037797;28;20031;-86
2021/10/28 20:45:58;;;;;;;6.73;4.23;;;9.90;61.50;;;;;;5033725;28;20033;-86
2021/10/28 20:48:24;;;;;;;8.43;3.90;;;9.90;61.50;;;;;;5034644;28;20551;-87
2021/10/28 20:50:51;;;;;;;5.57;3.60;;;9.80;61.40;;;;;;5050928;28;20033;-86
2021/10/28 20:53:18;;;;;;;7.40;3.47;;;9.80;61.70;;;;;;5034485;28;20029;-86
2021/10/28 20:55:44;;;;;;;9.20;3.47;;;9.80;61.80;;;;;;5036352;28;20456;-86
2021/10/28 20:58:10;;;;;;;4.80;3.10;;;9.80;61.80;;;;;;5043668;28;20109;-86
2021/10/28 21:00:36;;;;;;;9.00;2.67;;;9.90;62.50;;;;;;5036023;28;20112;-86
2021/10/28 21:03:02;;;;;;;5.40;2.67;;;9.90;61.80;;;;;;5039573;28;20535;-86
2021/10/28 21:05:29;;;;;;;4.67;2.80;;;9.80;62.00;;;;;;5036805;28;20029;-86
2021/10/28 21:07:55;;;;;;;6.17;3.17;;;9.80;62.30;;;;;;5034980;28;20028;-86
2021/10/28 21:10:25;;;;;;;5.17;2.93;;;9.90;62.60;;;;;;5035987;28;20025;-86
2021/10/28 21:12:52;;;;;;;7.40;2.67;;;9.90;62.40;;;;;;5033321;28;20510;-86
2021/10/28 21:15:18;;;;;;;7.67;2.20;;;9.90;62.40;;;;;;5031062;28;20032;-86
2021/10/28 21:17:44;;;;;;;6.90;2.50;;;9.80;62.20;;;;;;5034281;28;20123;-86
2021/10/28 21:20:11;;;;;;;13.60;3.27;;;9.80;62.10;;;;;;5038268;28;20143;-86
2021/10/28 21:22:37;;;;;;;4.13;2.33;;;9.80;62.50;;;;;;5036231;28;20404;-87
2021/10/28 21:25:05;;;;;;;5.87;1.90;;;9.80;61.70;;;;;;5034396;28;20061;-86
2021/10/28 21:27:31;;;;;;;4.93;2.07;;;9.70;61.80;;;;;;5045978;28;20476;-86
2021/10/28 21:29:57;;;;;;;4.27;1.60;;;9.60;61.70;;;;;;5062776;28;20044;-86
2021/10/28 21:32:23;;;;;;;4.40;2.43;;;9.60;62.00;;;;;;5037398;28;20044;-86
2021/10/28 21:34:49;;;;;;;4.07;2.10;;;9.60;61.90;;;;;;5033682;28;20024;-86
2021/10/28 21:37:16;;;;;;;3.67;2.17;;;9.50;62.00;;;;;;5034613;28;20037;-86
2021/10/28 21:39:43;;;;;;;6.17;2.07;;;9.50;62.30;;;;;;5035176;28;20108;-86
2021/10/28 21:42:09;;;;;;;3.33;2.23;;;9.40;62.40;;;;;;5050770;28;20064;-86
2021/10/28 21:44:37;;;;;;;3.03;1.93;;;9.40;62.40;;;;;;5049513;28;20021;-85
2021/10/28 21:47:04;;;;;;;7.07;1.70;;;9.30;62.50;;;;;;5034031;28;20459;-86
2021/10/28 21:49:30;;;;;;;3.50;2.07;;;9.30;62.70;;;;;;5050307;28;20060;-86
2021/10/28 21:51:59;;;;;;;5.67;2.37;;;9.30;62.80;;;;;;5034882;28;20080;-87
2021/10/28 21:54:37;;;;;;;6.07;2.30;;;9.30;62.80;;;;;;5035320;28;20067;-87
2021/10/28 21:57:13;;;;;;;5.77;2.17;;;9.30;62.80;;;;;;5029594;28;20434;-86
2021/10/28 22:02:55;;;;;;;8.20;3.40;;;9.30;62.70;;;;;;5055334;28;20029;-87